sensor_id;sensor_type;location;lat;lon;timestamp;P1;durP1;ratioP1;P2;durP2;ratioP2
6342;SDS011;3204;42.698;23.298;2023-05-31T00:01:58;6.32;;;5.93;;
6342;SDS011;3204;42.698;23.298;2023-05-31T00:04:24;6.75;;;6.25;;
6342;SDS011;3204;42.698;23.298;2023-05-31T00:06:50;6.82;;;6.43;;
6342;SDS011;3204;42.698;23.298;2023-05-31T00:09:15;7.07;;;6.68;;
6342;SDS011;3204;42.698;23.298;2023-05-31T00:11:41;7.10;;;6.70;;
6342;SDS011;3204;42.698;23.298;2023-05-31T00:14:06;7.32;;;6.72;;
6342;SDS011;3204;42.698;23.298;2023-05-31T00:16:32;8.52;;;7.63;;
6342;SDS011;3204;42.698;23.298;2023-05-31T00:18:58;7.32;;;6.68;;
6342;SDS011;3204;42.698;23.298;2023-05-31T00:21:23;8.05;;;7.45;;
6342;SDS011;3204;42.698;23.298;2023-05-31T00:23:48;6.25;;;5.75;;
6342;SDS011;3204;42.698;23.298;2023-05-31T00:26:14;5.75;;;5.35;;
6342;SDS011;3204;42.698;23.298;2023-05-31T00:28:40;7.55;;;5.38;;
6342;SDS011;3204;42.698;23.298;2023-05-31T00:31:05;5.90;;;5.40;;
6342;SDS011;3204;42.698;23.298;2023-05-31T00:33:31;5.88;;;5.35;;
6342;SDS011;3204;42.698;23.298;2023-05-31T00:35:56;6.32;;;5.47;;
6342;SDS011;3204;42.698;23.298;2023-05-31T00:38:22;5.70;;;5.30;;
6342;SDS011;3204;42.698;23.298;2023-05-31T00:40:47;6.72;;;6.32;;
6342;SDS011;3204;42.698;23.298;2023-05-31T00:43:13;7.68;;;7.18;;
6342;SDS011;3204;42.698;23.298;2023-05-31T00:45:38;8.35;;;7.82;;
6342;SDS011;3204;42.698;23.298;2023-05-31T00:48:04;7.55;;;7.15;;
6342;SDS011;3204;42.698;23.298;2023-05-31T00:50:30;8.27;;;7.55;;
6342;SDS011;3204;42.698;23.298;2023-05-31T00:52:56;8.70;;;8.13;;
6342;SDS011;3204;42.698;23.298;2023-05-31T00:55:23;9.55;;;8.60;;
6342;SDS011;3204;42.698;23.298;2023-05-31T00:57:49;8.00;;;7.50;;
6342;SDS011;3204;42.698;23.298;2023-05-31T01:00:15;8.35;;;7.53;;
6342;SDS011;3204;42.698;23.298;2023-05-31T01:02:41;7.53;;;6.93;;
6342;SDS011;3204;42.698;23.298;2023-05-31T01:05:08;7.35;;;6.85;;
6342;SDS011;3204;42.698;23.298;2023-05-31T01:07:34;6.75;;;6.25;;
6342;SDS011;3204;42.698;23.298;2023-05-31T01:10:00;7.05;;;6.70;;
6342;SDS011;3204;42.698;23.298;2023-05-31T01:15:31;6.82;;;6.38;;
6342;SDS011;3204;42.698;23.298;2023-05-31T01:18:18;6.78;;;6.28;;
6342;SDS011;3204;42.698;23.298;2023-05-31T01:20:50;6.35;;;5.70;;
6342;SDS011;3204;42.698;23.298;2023-05-31T01:28:42;7.07;;;6.57;;
6342;SDS011;3204;42.698;23.298;2023-05-31T01:31:12;7.50;;;6.97;;
6342;SDS011;3204;42.698;23.298;2023-05-31T01:33:41;7.40;;;6.90;;
6342;SDS011;3204;42.698;23.298;2023-05-31T01:36:07;7.47;;;6.78;;
6342;SDS011;3204;42.698;23.298;2023-05-31T01:38:33;7.15;;;6.57;;
6342;SDS011;3204;42.698;23.298;2023-05-31T01:40:58;7.45;;;6.70;;
6342;SDS011;3204;42.698;23.298;2023-05-31T01:43:25;7.60;;;6.85;;
6342;SDS011;3204;42.698;23.298;2023-05-31T01:45:53;8.50;;;7.75;;
6342;SDS011;3204;42.698;23.298;2023-05-31T01:48:18;11.63;;;8.10;;
6342;SDS011;3204;42.698;23.298;2023-05-31T01:50:44;8.70;;;7.82;;
6342;SDS011;3204;42.698;23.298;2023-05-31T01:53:10;8.77;;;7.97;;
6342;SDS011;3204;42.698;23.298;2023-05-31T01:55:36;8.75;;;7.97;;
6342;SDS011;3204;42.698;23.298;2023-05-31T01:58:01;12.73;;;8.55;;
6342;SDS011;3204;42.698;23.298;2023-05-31T02:00:29;10.10;;;8.43;;
6342;SDS011;3204;42.698;23.298;2023-05-31T02:02:55;18.70;;;8.27;;
6342;SDS011;3204;42.698;23.298;2023-05-31T02:05:22;11.05;;;7.90;;
6342;SDS011;3204;42.698;23.298;2023-05-31T02:07:48;7.70;;;7.00;;
6342;SDS011;3204;42.698;23.298;2023-05-31T02:10:14;7.05;;;6.47;;
6342;SDS011;3204;42.698;23.298;2023-05-31T02:12:39;7.40;;;6.80;;
6342;SDS011;3204;42.698;23.298;2023-05-31T02:15:05;6.90;;;6.35;;
6342;SDS011;3204;42.698;23.298;2023-05-31T02:17:39;7.18;;;6.63;;
6342;SDS011;3204;42.698;23.298;2023-05-31T02:20:11;7.63;;;6.88;;
6342;SDS011;3204;42.698;23.298;2023-05-31T02:22:39;6.97;;;6.18;;
6342;SDS011;3204;42.698;23.298;2023-05-31T02:25:06;7.97;;;7.38;;
6342;SDS011;3204;42.698;23.298;2023-05-31T02:27:33;7.32;;;6.85;;
6342;SDS011;3204;42.698;23.298;2023-05-31T02:29:59;10.45;;;7.32;;
6342;SDS011;3204;42.698;23.298;2023-05-31T02:32:24;8.48;;;7.53;;
6342;SDS011;3204;42.698;23.298;2023-05-31T02:34:50;8.02;;;7.45;;
6342;SDS011;3204;42.698;23.298;2023-05-31T02:37:16;9.60;;;8.70;;
6342;SDS011;3204;42.698;23.298;2023-05-31T02:39:41;8.65;;;7.95;;
6342;SDS011;3204;42.698;23.298;2023-05-31T02:42:06;8.05;;;7.40;;
6342;SDS011;3204;42.698;23.298;2023-05-31T02:44:32;11.00;;;9.00;;
6342;SDS011;3204;42.698;23.298;2023-05-31T02:46:58;8.75;;;7.95;;
6342;SDS011;3204;42.698;23.298;2023-05-31T02:49:23;9.05;;;8.35;;
6342;SDS011;3204;42.698;23.298;2023-05-31T02:51:49;9.02;;;8.02;;
6342;SDS011;3204;42.698;23.298;2023-05-31T02:54:14;8.95;;;7.93;;
6342;SDS011;3204;42.698;23.298;2023-05-31T02:56:39;9.70;;;9.05;;
6342;SDS011;3204;42.698;23.298;2023-05-31T02:59:05;9.27;;;8.57;;
6342;SDS011;3204;42.698;23.298;2023-05-31T03:01:31;9.88;;;8.90;;
6342;SDS011;3204;42.698;23.298;2023-05-31T03:03:57;9.98;;;8.15;;
6342;SDS011;3204;42.698;23.298;2023-05-31T03:06:22;9.70;;;9.02;;
6342;SDS011;3204;42.698;23.298;2023-05-31T03:08:48;9.93;;;9.00;;
6342;SDS011;3204;42.698;23.298;2023-05-31T03:11:13;9.88;;;9.02;;
6342;SDS011;3204;42.698;23.298;2023-05-31T03:13:39;11.30;;;9.35;;
6342;SDS011;3204;42.698;23.298;2023-05-31T03:16:04;10.32;;;9.18;;
6342;SDS011;3204;42.698;23.298;2023-05-31T03:18:30;10.30;;;8.57;;
6342;SDS011;3204;42.698;23.298;2023-05-31T03:20:56;9.88;;;8.60;;
6342;SDS011;3204;42.698;23.298;2023-05-31T03:23:21;10.68;;;9.65;;
6342;SDS011;3204;42.698;23.298;2023-05-31T03:25:47;10.50;;;9.55;;
6342;SDS011;3204;42.698;23.298;2023-05-31T03:28:12;10.70;;;9.70;;
6342;SDS011;3204;42.698;23.298;2023-05-31T03:30:38;10.82;;;9.75;;
6342;SDS011;3204;42.698;23.298;2023-05-31T03:33:03;10.82;;;9.60;;
6342;SDS011;3204;42.698;23.298;2023-05-31T03:35:29;12.05;;;9.13;;
6342;SDS011;3204;42.698;23.298;2023-05-31T03:37:54;11.13;;;10.02;;
6342;SDS011;3204;42.698;23.298;2023-05-31T03:40:20;13.65;;;9.75;;
6342;SDS011;3204;42.698;23.298;2023-05-31T03:42:46;10.77;;;9.43;;
6342;SDS011;3204;42.698;23.298;2023-05-31T03:45:11;10.25;;;9.40;;
6342;SDS011;3204;42.698;23.298;2023-05-31T03:47:37;13.23;;;9.15;;
6342;SDS011;3204;42.698;23.298;2023-05-31T03:50:03;9.43;;;8.50;;
6342;SDS011;3204;42.698;23.298;2023-05-31T03:52:29;9.90;;;9.10;;
6342;SDS011;3204;42.698;23.298;2023-05-31T03:54:55;10.80;;;9.75;;
6342;SDS011;3204;42.698;23.298;2023-05-31T03:57:20;11.18;;;10.10;;
6342;SDS011;3204;42.698;23.298;2023-05-31T03:59:46;11.02;;;9.90;;
6342;SDS011;3204;42.698;23.298;2023-05-31T04:02:11;11.15;;;9.40;;
6342;SDS011;3204;42.698;23.298;2023-05-31T04:04:37;10.77;;;9.70;;
6342;SDS011;3204;42.698;23.298;2023-05-31T04:07:02;10.40;;;9.50;;
6342;SDS011;3204;42.698;23.298;2023-05-31T04:09:28;14.05;;;10.02;;
6342;SDS011;3204;42.698;23.298;2023-05-31T04:11:54;10.57;;;9.52;;
6342;SDS011;3204;42.698;23.298;2023-05-31T04:14:20;13.35;;;9.38;;
6342;SDS011;3204;42.698;23.298;2023-05-31T04:16:45;13.43;;;10.25;;
6342;SDS011;3204;42.698;23.298;2023-05-31T04:19:11;12.20;;;9.35;;
6342;SDS011;3204;42.698;23.298;2023-05-31T04:21:37;10.77;;;9.18;;
6342;SDS011;3204;42.698;23.298;2023-05-31T04:24:02;10.23;;;9.20;;
6342;SDS011;3204;42.698;23.298;2023-05-31T04:26:28;10.30;;;9.38;;
6342;SDS011;3204;42.698;23.298;2023-05-31T04:28:54;14.57;;;9.75;;
6342;SDS011;3204;42.698;23.298;2023-05-31T04:31:20;13.00;;;8.75;;
6342;SDS011;3204;42.698;23.298;2023-05-31T04:33:49;10.50;;;9.48;;
6342;SDS011;3204;42.698;23.298;2023-05-31T04:36:16;9.90;;;9.10;;
6342;SDS011;3204;42.698;23.298;2023-05-31T04:38:41;9.45;;;8.70;;
6342;SDS011;3204;42.698;23.298;2023-05-31T04:41:07;9.70;;;8.90;;
6342;SDS011;3204;42.698;23.298;2023-05-31T04:43:32;9.35;;;8.75;;
6342;SDS011;3204;42.698;23.298;2023-05-31T04:45:58;9.98;;;9.05;;
6342;SDS011;3204;42.698;23.298;2023-05-31T04:48:25;9.70;;;9.10;;
6342;SDS011;3204;42.698;23.298;2023-05-31T04:50:52;9.55;;;8.77;;
6342;SDS011;3204;42.698;23.298;2023-05-31T04:53:20;8.77;;;8.00;;
6342;SDS011;3204;42.698;23.298;2023-05-31T04:55:45;10.57;;;9.23;;
6342;SDS011;3204;42.698;23.298;2023-05-31T04:58:11;9.77;;;8.88;;
6342;SDS011;3204;42.698;23.298;2023-05-31T05:00:36;9.60;;;7.80;;
6342;SDS011;3204;42.698;23.298;2023-05-31T05:03:02;8.85;;;8.05;;
6342;SDS011;3204;42.698;23.298;2023-05-31T05:05:28;11.38;;;8.27;;
6342;SDS011;3204;42.698;23.298;2023-05-31T05:07:53;9.68;;;8.07;;
6342;SDS011;3204;42.698;23.298;2023-05-31T05:10:18;10.00;;;8.25;;
6342;SDS011;3204;42.698;23.298;2023-05-31T05:12:44;8.20;;;7.53;;
6342;SDS011;3204;42.698;23.298;2023-05-31T05:15:09;9.32;;;8.43;;
6342;SDS011;3204;42.698;23.298;2023-05-31T05:17:35;8.25;;;7.50;;
6342;SDS011;3204;42.698;23.298;2023-05-31T05:20:02;8.35;;;7.57;;
6342;SDS011;3204;42.698;23.298;2023-05-31T05:22:30;8.75;;;8.15;;
6342;SDS011;3204;42.698;23.298;2023-05-31T05:24:55;9.23;;;8.32;;
6342;SDS011;3204;42.698;23.298;2023-05-31T05:27:21;14.32;;;8.43;;
6342;SDS011;3204;42.698;23.298;2023-05-31T05:29:46;10.50;;;8.23;;
6342;SDS011;3204;42.698;23.298;2023-05-31T05:32:12;10.00;;;9.02;;
6342;SDS011;3204;42.698;23.298;2023-05-31T05:34:38;10.02;;;9.18;;
6342;SDS011;3204;42.698;23.298;2023-05-31T05:37:04;9.77;;;8.98;;
6342;SDS011;3204;42.698;23.298;2023-05-31T05:39:30;9.52;;;8.60;;
6342;SDS011;3204;42.698;23.298;2023-05-31T05:41:55;9.45;;;8.70;;
6342;SDS011;3204;42.698;23.298;2023-05-31T05:44:21;9.45;;;8.43;;
6342;SDS011;3204;42.698;23.298;2023-05-31T05:46:47;13.77;;;9.35;;
6342;SDS011;3204;42.698;23.298;2023-05-31T05:49:12;10.25;;;9.00;;
6342;SDS011;3204;42.698;23.298;2023-05-31T05:51:37;9.32;;;8.60;;
6342;SDS011;3204;42.698;23.298;2023-05-31T05:54:03;10.55;;;9.55;;
6342;SDS011;3204;42.698;23.298;2023-05-31T05:56:28;10.57;;;9.80;;
6342;SDS011;3204;42.698;23.298;2023-05-31T05:58:54;15.50;;;10.50;;
6342;SDS011;3204;42.698;23.298;2023-05-31T06:01:19;14.10;;;10.32;;
6342;SDS011;3204;42.698;23.298;2023-05-31T06:03:49;17.10;;;10.35;;
6342;SDS011;3204;42.698;23.298;2023-05-31T06:06:15;10.48;;;9.68;;
6342;SDS011;3204;42.698;23.298;2023-05-31T06:08:41;10.90;;;9.88;;
6342;SDS011;3204;42.698;23.298;2023-05-31T06:11:11;15.48;;;9.98;;
6342;SDS011;3204;42.698;23.298;2023-05-31T06:13:36;14.45;;;10.18;;
6342;SDS011;3204;42.698;23.298;2023-05-31T06:16:05;11.43;;;10.45;;
6342;SDS011;3204;42.698;23.298;2023-05-31T06:18:31;11.32;;;9.70;;
6342;SDS011;3204;42.698;23.298;2023-05-31T06:20:57;13.27;;;10.00;;
6342;SDS011;3204;42.698;23.298;2023-05-31T06:23:22;11.77;;;10.57;;
6342;SDS011;3204;42.698;23.298;2023-05-31T06:25:48;30.80;;;11.02;;
6342;SDS011;3204;42.698;23.298;2023-05-31T06:28:13;12.38;;;10.57;;
6342;SDS011;3204;42.698;23.298;2023-05-31T06:30:39;11.70;;;10.60;;
6342;SDS011;3204;42.698;23.298;2023-05-31T06:33:06;14.13;;;10.80;;
6342;SDS011;3204;42.698;23.298;2023-05-31T06:35:32;10.88;;;9.85;;
6342;SDS011;3204;42.698;23.298;2023-05-31T06:37:58;12.18;;;10.95;;
6342;SDS011;3204;42.698;23.298;2023-05-31T06:40:23;11.90;;;10.10;;
6342;SDS011;3204;42.698;23.298;2023-05-31T06:42:49;11.40;;;9.73;;
6342;SDS011;3204;42.698;23.298;2023-05-31T06:45:14;10.55;;;9.60;;
6342;SDS011;3204;42.698;23.298;2023-05-31T06:47:40;15.00;;;10.05;;
6342;SDS011;3204;42.698;23.298;2023-05-31T06:50:05;10.77;;;9.40;;
6342;SDS011;3204;42.698;23.298;2023-05-31T06:52:31;9.88;;;8.23;;
6342;SDS011;3204;42.698;23.298;2023-05-31T06:54:56;8.82;;;8.23;;
6342;SDS011;3204;42.698;23.298;2023-05-31T06:57:22;9.50;;;8.50;;
6342;SDS011;3204;42.698;23.298;2023-05-31T06:59:47;8.95;;;8.27;;
6342;SDS011;3204;42.698;23.298;2023-05-31T07:02:13;9.35;;;8.50;;
6342;SDS011;3204;42.698;23.298;2023-05-31T07:04:39;10.95;;;8.45;;
6342;SDS011;3204;42.698;23.298;2023-05-31T07:07:04;10.15;;;9.13;;
6342;SDS011;3204;42.698;23.298;2023-05-31T07:09:30;9.82;;;8.93;;
6342;SDS011;3204;42.698;23.298;2023-05-31T07:11:55;8.60;;;7.95;;
6342;SDS011;3204;42.698;23.298;2023-05-31T07:14:21;9.68;;;8.93;;
6342;SDS011;3204;42.698;23.298;2023-05-31T07:16:48;9.77;;;8.25;;
6342;SDS011;3204;42.698;23.298;2023-05-31T07:19:13;9.18;;;8.52;;
6342;SDS011;3204;42.698;23.298;2023-05-31T07:21:38;8.63;;;7.82;;
6342;SDS011;3204;42.698;23.298;2023-05-31T07:24:04;8.30;;;7.40;;
6342;SDS011;3204;42.698;23.298;2023-05-31T07:26:29;8.90;;;8.23;;
6342;SDS011;3204;42.698;23.298;2023-05-31T07:28:55;10.77;;;8.20;;
6342;SDS011;3204;42.698;23.298;2023-05-31T07:31:21;8.15;;;7.55;;
6342;SDS011;3204;42.698;23.298;2023-05-31T07:33:47;7.95;;;7.45;;
6342;SDS011;3204;42.698;23.298;2023-05-31T07:36:12;8.68;;;7.85;;
6342;SDS011;3204;42.698;23.298;2023-05-31T07:38:38;9.93;;;8.23;;
6342;SDS011;3204;42.698;23.298;2023-05-31T07:41:03;8.82;;;8.07;;
6342;SDS011;3204;42.698;23.298;2023-05-31T07:43:29;8.98;;;8.27;;
6342;SDS011;3204;42.698;23.298;2023-05-31T07:45:56;8.85;;;8.05;;
6342;SDS011;3204;42.698;23.298;2023-05-31T07:48:22;8.57;;;7.85;;
6342;SDS011;3204;42.698;23.298;2023-05-31T07:50:48;9.80;;;8.95;;
6342;SDS011;3204;42.698;23.298;2023-05-31T07:53:14;14.63;;;8.40;;
6342;SDS011;3204;42.698;23.298;2023-05-31T07:55:40;11.82;;;8.68;;
6342;SDS011;3204;42.698;23.298;2023-05-31T07:58:05;10.60;;;8.88;;
6342;SDS011;3204;42.698;23.298;2023-05-31T08:00:31;8.70;;;7.82;;
6342;SDS011;3204;42.698;23.298;2023-05-31T08:02:56;8.40;;;7.80;;
6342;SDS011;3204;42.698;23.298;2023-05-31T08:05:22;8.20;;;7.38;;
6342;SDS011;3204;42.698;23.298;2023-05-31T08:07:49;9.52;;;8.57;;
6342;SDS011;3204;42.698;23.298;2023-05-31T08:10:15;8.93;;;8.18;;
6342;SDS011;3204;42.698;23.298;2023-05-31T08:12:41;9.23;;;8.45;;
6342;SDS011;3204;42.698;23.298;2023-05-31T08:15:07;10.98;;;8.57;;
6342;SDS011;3204;42.698;23.298;2023-05-31T08:17:33;8.75;;;8.15;;
6342;SDS011;3204;42.698;23.298;2023-05-31T08:19:58;9.45;;;8.60;;
6342;SDS011;3204;42.698;23.298;2023-05-31T08:22:24;11.07;;;8.20;;
6342;SDS011;3204;42.698;23.298;2023-05-31T08:24:49;9.77;;;8.32;;
6342;SDS011;3204;42.698;23.298;2023-05-31T08:27:15;8.77;;;8.02;;
6342;SDS011;3204;42.698;23.298;2023-05-31T08:29:42;10.95;;;7.75;;
6342;SDS011;3204;42.698;23.298;2023-05-31T08:32:07;9.65;;;8.77;;
6342;SDS011;3204;42.698;23.298;2023-05-31T08:34:33;11.43;;;8.68;;
6342;SDS011;3204;42.698;23.298;2023-05-31T08:36:58;9.35;;;8.45;;
6342;SDS011;3204;42.698;23.298;2023-05-31T08:39:24;8.85;;;7.95;;
6342;SDS011;3204;42.698;23.298;2023-05-31T08:42:35;8.98;;;7.97;;
6342;SDS011;3204;42.698;23.298;2023-05-31T08:44:56;12.25;;;8.15;;
6342;SDS011;3204;42.698;23.298;2023-05-31T08:47:28;8.57;;;7.72;;
6342;SDS011;3204;42.698;23.298;2023-05-31T08:50:01;10.38;;;7.13;;
6342;SDS011;3204;42.698;23.298;2023-05-31T08:52:28;6.57;;;6.25;;
6342;SDS011;3204;42.698;23.298;2023-05-31T08:54:56;7.32;;;6.63;;
6342;SDS011;3204;42.698;23.298;2023-05-31T08:57:23;6.65;;;6.15;;
6342;SDS011;3204;42.698;23.298;2023-05-31T08:59:48;7.15;;;6.57;;
6342;SDS011;3204;42.698;23.298;2023-05-31T09:02:15;6.85;;;6.35;;
6342;SDS011;3204;42.698;23.298;2023-05-31T09:04:42;6.97;;;6.57;;
6342;SDS011;3204;42.698;23.298;2023-05-31T09:07:08;7.55;;;6.90;;
6342;SDS011;3204;42.698;23.298;2023-05-31T09:09:33;6.68;;;6.25;;
6342;SDS011;3204;42.698;23.298;2023-05-31T09:11:59;6.97;;;6.55;;
6342;SDS011;3204;42.698;23.298;2023-05-31T09:14:25;7.40;;;6.72;;
6342;SDS011;3204;42.698;23.298;2023-05-31T09:16:51;7.43;;;6.85;;
6342;SDS011;3204;42.698;23.298;2023-05-31T09:19:16;6.75;;;6.43;;
6342;SDS011;3204;42.698;23.298;2023-05-31T09:21:43;6.85;;;6.18;;
6342;SDS011;3204;42.698;23.298;2023-05-31T09:24:09;6.68;;;6.18;;
6342;SDS011;3204;42.698;23.298;2023-05-31T09:26:35;6.72;;;6.20;;
6342;SDS011;3204;42.698;23.298;2023-05-31T09:29:10;5.95;;;5.65;;
6342;SDS011;3204;42.698;23.298;2023-05-31T09:31:35;6.90;;;6.40;;
6342;SDS011;3204;42.698;23.298;2023-05-31T09:34:01;6.57;;;6.10;;
6342;SDS011;3204;42.698;23.298;2023-05-31T09:36:27;7.15;;;6.70;;
6342;SDS011;3204;42.698;23.298;2023-05-31T09:39:00;7.93;;;5.88;;
6342;SDS011;3204;42.698;23.298;2023-05-31T09:41:26;9.07;;;5.68;;
6342;SDS011;3204;42.698;23.298;2023-05-31T09:43:52;5.90;;;5.50;;
6342;SDS011;3204;42.698;23.298;2023-05-31T09:46:18;10.55;;;5.90;;
6342;SDS011;3204;42.698;23.298;2023-05-31T09:48:46;7.07;;;6.03;;
6342;SDS011;3204;42.698;23.298;2023-05-31T09:51:25;6.57;;;5.90;;
6342;SDS011;3204;42.698;23.298;2023-05-31T09:53:51;6.32;;;5.80;;
6342;SDS011;3204;42.698;23.298;2023-05-31T09:56:20;6.05;;;5.63;;
6342;SDS011;3204;42.698;23.298;2023-05-31T09:58:48;5.43;;;5.10;;
6342;SDS011;3204;42.698;23.298;2023-05-31T10:01:14;7.25;;;5.10;;
6342;SDS011;3204;42.698;23.298;2023-05-31T10:03:40;5.88;;;5.57;;
6342;SDS011;3204;42.698;23.298;2023-05-31T10:06:06;5.90;;;5.45;;
6342;SDS011;3204;42.698;23.298;2023-05-31T10:08:32;13.77;;;6.32;;
6342;SDS011;3204;42.698;23.298;2023-05-31T10:10:59;5.85;;;5.55;;
6342;SDS011;3204;42.698;23.298;2023-05-31T10:13:29;5.75;;;5.25;;
6342;SDS011;3204;42.698;23.298;2023-05-31T10:15:56;10.30;;;5.72;;
6342;SDS011;3204;42.698;23.298;2023-05-31T10:18:27;5.53;;;5.22;;
6342;SDS011;3204;42.698;23.298;2023-05-31T10:20:56;22.85;;;5.50;;
6342;SDS011;3204;42.698;23.298;2023-05-31T10:23:23;8.32;;;5.40;;
6342;SDS011;3204;42.698;23.298;2023-05-31T10:28:47;6.30;;;5.88;;
6342;SDS011;3204;42.698;23.298;2023-05-31T10:31:25;6.57;;;5.82;;
6342;SDS011;3204;42.698;23.298;2023-05-31T10:34:00;6.20;;;5.70;;
6342;SDS011;3204;42.698;23.298;2023-05-31T10:36:34;8.32;;;5.90;;
6342;SDS011;3204;42.698;23.298;2023-05-31T10:39:03;8.15;;;7.68;;
6342;SDS011;3204;42.698;23.298;2023-05-31T10:41:36;6.82;;;6.30;;
6342;SDS011;3204;42.698;23.298;2023-05-31T10:44:18;6.20;;;5.60;;
6342;SDS011;3204;42.698;23.298;2023-05-31T10:46:49;8.40;;;5.60;;
6342;SDS011;3204;42.698;23.298;2023-05-31T10:49:21;5.80;;;5.22;;
6342;SDS011;3204;42.698;23.298;2023-05-31T10:51:48;4.57;;;4.28;;
6342;SDS011;3204;42.698;23.298;2023-05-31T10:54:18;4.80;;;4.60;;
6342;SDS011;3204;42.698;23.298;2023-05-31T10:56:51;4.03;;;3.75;;
6342;SDS011;3204;42.698;23.298;2023-05-31T10:59:28;3.63;;;3.42;;
6342;SDS011;3204;42.698;23.298;2023-05-31T11:02:04;4.15;;;3.85;;
6342;SDS011;3204;42.698;23.298;2023-05-31T11:04:31;8.48;;;4.38;;
6342;SDS011;3204;42.698;23.298;2023-05-31T11:09:55;4.90;;;4.60;;
6342;SDS011;3204;42.698;23.298;2023-05-31T11:12:34;5.10;;;4.80;;
6342;SDS011;3204;42.698;23.298;2023-05-31T11:15:11;5.65;;;5.25;;
6342;SDS011;3204;42.698;23.298;2023-05-31T11:17:53;4.90;;;4.50;;
6342;SDS011;3204;42.698;23.298;2023-05-31T11:20:20;5.28;;;4.88;;
6342;SDS011;3204;42.698;23.298;2023-05-31T11:22:47;7.90;;;5.53;;
6342;SDS011;3204;42.698;23.298;2023-05-31T11:25:19;7.57;;;4.97;;
6342;SDS011;3204;42.698;23.298;2023-05-31T11:27:45;8.68;;;5.97;;
6342;SDS011;3204;42.698;23.298;2023-05-31T11:30:17;5.05;;;4.53;;
6342;SDS011;3204;42.698;23.298;2023-05-31T11:35:16;5.35;;;4.68;;
6342;SDS011;3204;42.698;23.298;2023-05-31T11:37:42;5.10;;;4.65;;
6342;SDS011;3204;42.698;23.298;2023-05-31T11:40:08;8.90;;;5.22;;
6342;SDS011;3204;42.698;23.298;2023-05-31T11:42:43;8.15;;;5.18;;
6342;SDS011;3204;42.698;23.298;2023-05-31T11:50:41;4.95;;;4.50;;
6342;SDS011;3204;42.698;23.298;2023-05-31T11:53:09;8.95;;;4.68;;
6342;SDS011;3204;42.698;23.298;2023-05-31T11:55:35;7.93;;;5.15;;
6342;SDS011;3204;42.698;23.298;2023-05-31T11:58:00;7.03;;;5.03;;
6342;SDS011;3204;42.698;23.298;2023-05-31T12:00:27;5.43;;;5.03;;
6342;SDS011;3204;42.698;23.298;2023-05-31T12:02:54;4.80;;;4.50;;
6342;SDS011;3204;42.698;23.298;2023-05-31T12:05:29;5.40;;;4.90;;
6342;SDS011;3204;42.698;23.298;2023-05-31T12:07:55;6.40;;;5.35;;
6342;SDS011;3204;42.698;23.298;2023-05-31T12:10:25;5.90;;;5.40;;
6342;SDS011;3204;42.698;23.298;2023-05-31T12:12:57;5.57;;;5.22;;
6342;SDS011;3204;42.698;23.298;2023-05-31T12:15:23;5.63;;;5.15;;
6342;SDS011;3204;42.698;23.298;2023-05-31T12:17:48;7.03;;;6.32;;
6342;SDS011;3204;42.698;23.298;2023-05-31T12:20:13;8.60;;;5.70;;
6342;SDS011;3204;42.698;23.298;2023-05-31T12:22:39;9.45;;;6.13;;
6342;SDS011;3204;42.698;23.298;2023-05-31T12:25:05;6.25;;;5.78;;
6342;SDS011;3204;42.698;23.298;2023-05-31T12:27:31;5.38;;;4.88;;
6342;SDS011;3204;42.698;23.298;2023-05-31T12:29:58;8.45;;;4.68;;
6342;SDS011;3204;42.698;23.298;2023-05-31T12:32:25;7.82;;;5.10;;
6342;SDS011;3204;42.698;23.298;2023-05-31T12:35:03;5.97;;;4.95;;
6342;SDS011;3204;42.698;23.298;2023-05-31T12:37:38;6.55;;;5.95;;
6342;SDS011;3204;42.698;23.298;2023-05-31T12:40:14;6.82;;;6.30;;
6342;SDS011;3204;42.698;23.298;2023-05-31T12:42:43;7.15;;;6.40;;
6342;SDS011;3204;42.698;23.298;2023-05-31T12:45:08;5.63;;;5.30;;
6342;SDS011;3204;42.698;23.298;2023-05-31T12:47:35;8.00;;;7.30;;
6342;SDS011;3204;42.698;23.298;2023-05-31T12:50:04;10.40;;;7.43;;
6342;SDS011;3204;42.698;23.298;2023-05-31T12:52:35;33.15;;;10.10;;
6342;SDS011;3204;42.698;23.298;2023-05-31T12:55:03;18.10;;;13.13;;
6342;SDS011;3204;42.698;23.298;2023-05-31T12:57:30;22.95;;;15.18;;
6342;SDS011;3204;42.698;23.298;2023-05-31T13:00:05;10.45;;;9.30;;
6342;SDS011;3204;42.698;23.298;2023-05-31T13:02:36;11.95;;;9.07;;
6342;SDS011;3204;42.698;23.298;2023-05-31T13:05:05;9.90;;;8.73;;
6342;SDS011;3204;42.698;23.298;2023-05-31T13:07:32;9.45;;;8.57;;
6342;SDS011;3204;42.698;23.298;2023-05-31T13:09:58;7.93;;;7.22;;
6342;SDS011;3204;42.698;23.298;2023-05-31T13:12:23;7.70;;;7.00;;
6342;SDS011;3204;42.698;23.298;2023-05-31T13:14:48;8.88;;;7.20;;
6342;SDS011;3204;42.698;23.298;2023-05-31T13:17:17;6.95;;;6.38;;
6342;SDS011;3204;42.698;23.298;2023-05-31T13:19:42;7.57;;;6.75;;
6342;SDS011;3204;42.698;23.298;2023-05-31T13:22:08;6.78;;;6.22;;
6342;SDS011;3204;42.698;23.298;2023-05-31T13:24:33;6.78;;;6.20;;
6342;SDS011;3204;42.698;23.298;2023-05-31T13:26:59;7.10;;;6.13;;
6342;SDS011;3204;42.698;23.298;2023-05-31T13:29:24;7.22;;;6.55;;
6342;SDS011;3204;42.698;23.298;2023-05-31T13:31:50;6.65;;;6.05;;
6342;SDS011;3204;42.698;23.298;2023-05-31T13:34:17;7.15;;;6.03;;
6342;SDS011;3204;42.698;23.298;2023-05-31T13:36:44;5.68;;;5.28;;
6342;SDS011;3204;42.698;23.298;2023-05-31T13:39:09;6.03;;;5.63;;
6342;SDS011;3204;42.698;23.298;2023-05-31T13:41:39;5.65;;;5.25;;
6342;SDS011;3204;42.698;23.298;2023-05-31T13:44:08;5.40;;;5.00;;
6342;SDS011;3204;42.698;23.298;2023-05-31T13:46:33;5.72;;;4.78;;
6342;SDS011;3204;42.698;23.298;2023-05-31T13:48:59;6.40;;;4.85;;
6342;SDS011;3204;42.698;23.298;2023-05-31T13:51:25;5.28;;;4.80;;
6342;SDS011;3204;42.698;23.298;2023-05-31T13:53:50;10.15;;;4.80;;
6342;SDS011;3204;42.698;23.298;2023-05-31T13:56:16;7.80;;;5.63;;
6342;SDS011;3204;42.698;23.298;2023-05-31T13:58:41;10.88;;;5.45;;
6342;SDS011;3204;42.698;23.298;2023-05-31T14:01:07;10.93;;;5.68;;
6342;SDS011;3204;42.698;23.298;2023-05-31T14:03:39;7.10;;;5.32;;
6342;SDS011;3204;42.698;23.298;2023-05-31T14:06:05;7.05;;;6.35;;
6342;SDS011;3204;42.698;23.298;2023-05-31T14:08:31;7.68;;;5.80;;
6342;SDS011;3204;42.698;23.298;2023-05-31T14:10:56;11.00;;;6.70;;
6342;SDS011;3204;42.698;23.298;2023-05-31T14:13:22;9.98;;;6.80;;
6342;SDS011;3204;42.698;23.298;2023-05-31T14:15:48;7.85;;;6.82;;
6342;SDS011;3204;42.698;23.298;2023-05-31T14:18:13;7.00;;;6.30;;
6342;SDS011;3204;42.698;23.298;2023-05-31T14:20:39;7.53;;;6.10;;
6342;SDS011;3204;42.698;23.298;2023-05-31T14:23:06;10.10;;;6.25;;
6342;SDS011;3204;42.698;23.298;2023-05-31T14:25:31;12.57;;;6.57;;
6342;SDS011;3204;42.698;23.298;2023-05-31T14:27:57;14.23;;;6.68;;
6342;SDS011;3204;42.698;23.298;2023-05-31T14:30:23;11.85;;;7.13;;
6342;SDS011;3204;42.698;23.298;2023-05-31T14:32:50;12.13;;;6.22;;
6342;SDS011;3204;42.698;23.298;2023-05-31T14:35:15;12.32;;;6.57;;
6342;SDS011;3204;42.698;23.298;2023-05-31T14:37:42;8.07;;;6.40;;
6342;SDS011;3204;42.698;23.298;2023-05-31T14:40:07;6.68;;;6.15;;
6342;SDS011;3204;42.698;23.298;2023-05-31T14:42:33;15.50;;;5.85;;
6342;SDS011;3204;42.698;23.298;2023-05-31T14:44:59;6.07;;;5.28;;
6342;SDS011;3204;42.698;23.298;2023-05-31T14:47:28;6.90;;;5.63;;
6342;SDS011;3204;42.698;23.298;2023-05-31T14:49:55;6.28;;;5.75;;
6342;SDS011;3204;42.698;23.298;2023-05-31T14:52:20;8.98;;;6.20;;
6342;SDS011;3204;42.698;23.298;2023-05-31T14:54:46;9.13;;;6.15;;
6342;SDS011;3204;42.698;23.298;2023-05-31T14:57:11;7.00;;;5.72;;
6342;SDS011;3204;42.698;23.298;2023-05-31T14:59:37;6.40;;;5.72;;
6342;SDS011;3204;42.698;23.298;2023-05-31T15:02:02;9.60;;;5.40;;
6342;SDS011;3204;42.698;23.298;2023-05-31T15:04:28;9.48;;;5.90;;
6342;SDS011;3204;42.698;23.298;2023-05-31T15:06:54;8.60;;;5.57;;
6342;SDS011;3204;42.698;23.298;2023-05-31T15:09:19;7.22;;;5.90;;
6342;SDS011;3204;42.698;23.298;2023-05-31T15:11:45;9.35;;;7.53;;
6342;SDS011;3204;42.698;23.298;2023-05-31T15:14:11;10.95;;;7.05;;
6342;SDS011;3204;42.698;23.298;2023-05-31T15:16:38;10.65;;;5.57;;
6342;SDS011;3204;42.698;23.298;2023-05-31T15:19:03;9.98;;;6.30;;